sensor_id;sensor_type;location;lat;lon;timestamp;P1;durP1;ratioP1;P2;durP2;ratioP2
70049;SDS011;57391;51.306;22.680;2023-08-21T00:00:14;17.00;;;14.40;;
70049;SDS011;57391;51.306;22.680;2023-08-21T00:03:01;17.50;;;14.40;;
70049;SDS011;57391;51.306;22.680;2023-08-21T00:05:28;18.90;;;15.70;;
70049;SDS011;57391;51.306;22.680;2023-08-21T00:07:55;17.80;;;14.70;;
70049;SDS011;57391;51.306;22.680;2023-08-21T00:10:21;17.90;;;14.90;;
70049;SDS011;57391;51.306;22.680;2023-08-21T00:12:48;18.60;;;14.90;;
70049;SDS011;57391;51.306;22.680;2023-08-21T00:15:15;18.60;;;15.20;;
70049;SDS011;57391;51.306;22.680;2023-08-21T00:17:42;18.70;;;14.90;;
70049;SDS011;57391;51.306;22.680;2023-08-21T00:20:10;18.70;;;15.80;;
70049;SDS011;57391;51.306;22.680;2023-08-21T00:22:37;19.40;;;16.00;;
70049;SDS011;57391;51.306;22.680;2023-08-21T00:25:04;20.30;;;15.50;;
70049;SDS011;57391;51.306;22.680;2023-08-21T00:27:31;19.00;;;15.90;;
70049;SDS011;57391;51.306;22.680;2023-08-21T00:29:59;17.80;;;15.60;;
70049;SDS011;57391;51.306;22.680;2023-08-21T00:32:27;18.90;;;15.70;;
70049;SDS011;57391;51.306;22.680;2023-08-21T00:34:54;17.70;;;15.20;;
70049;SDS011;57391;51.306;22.680;2023-08-21T00:37:21;17.80;;;15.00;;
70049;SDS011;57391;51.306;22.680;2023-08-21T00:39:47;16.80;;;14.80;;
70049;SDS011;57391;51.306;22.680;2023-08-21T00:42:14;18.50;;;15.50;;
70049;SDS011;57391;51.306;22.680;2023-08-21T00:44:42;19.40;;;15.50;;
70049;SDS011;57391;51.306;22.680;2023-08-21T00:47:10;18.40;;;15.50;;
70049;SDS011;57391;51.306;22.680;2023-08-21T00:49:37;17.50;;;15.10;;
70049;SDS011;57391;51.306;22.680;2023-08-21T00:52:12;19.30;;;15.30;;
70049;SDS011;57391;51.306;22.680;2023-08-21T00:54:41;17.90;;;15.50;;
70049;SDS011;57391;51.306;22.680;2023-08-21T00:57:10;18.80;;;16.20;;
70049;SDS011;57391;51.306;22.680;2023-08-21T00:59:41;19.80;;;16.10;;
70049;SDS011;57391;51.306;22.680;2023-08-21T01:02:08;18.30;;;15.40;;
70049;SDS011;57391;51.306;22.680;2023-08-21T01:04:35;21.00;;;17.00;;
70049;SDS011;57391;51.306;22.680;2023-08-21T01:07:02;18.40;;;16.30;;
70049;SDS011;57391;51.306;22.680;2023-08-21T01:09:40;20.50;;;16.50;;
70049;SDS011;57391;51.306;22.680;2023-08-21T01:12:34;18.40;;;16.10;;
70049;SDS011;57391;51.306;22.680;2023-08-21T01:15:07;22.20;;;16.80;;
70049;SDS011;57391;51.306;22.680;2023-08-21T01:17:37;18.80;;;15.90;;
70049;SDS011;57391;51.306;22.680;2023-08-21T01:20:07;20.50;;;16.90;;
70049;SDS011;57391;51.306;22.680;2023-08-21T01:22:41;19.40;;;15.90;;
70049;SDS011;57391;51.306;22.680;2023-08-21T01:25:16;19.40;;;16.90;;
70049;SDS011;57391;51.306;22.680;2023-08-21T01:27:50;20.10;;;16.60;;
70049;SDS011;57391;51.306;22.680;2023-08-21T01:30:17;20.20;;;16.00;;
70049;SDS011;57391;51.306;22.680;2023-08-21T01:33:08;18.20;;;15.80;;
70049;SDS011;57391;51.306;22.680;2023-08-21T01:35:39;18.60;;;15.70;;
70049;SDS011;57391;51.306;22.680;2023-08-21T01:38:07;20.80;;;16.40;;
70049;SDS011;57391;51.306;22.680;2023-08-21T01:40:34;18.10;;;16.10;;
70049;SDS011;57391;51.306;22.680;2023-08-21T01:43:01;20.80;;;17.00;;
70049;SDS011;57391;51.306;22.680;2023-08-21T01:45:27;18.80;;;16.30;;
70049;SDS011;57391;51.306;22.680;2023-08-21T01:47:54;17.70;;;15.80;;
70049;SDS011;57391;51.306;22.680;2023-08-21T01:50:21;23.60;;;16.60;;
70049;SDS011;57391;51.306;22.680;2023-08-21T01:52:48;17.60;;;15.20;;
70049;SDS011;57391;51.306;22.680;2023-08-21T01:55:15;19.20;;;16.00;;
70049;SDS011;57391;51.306;22.680;2023-08-21T01:57:42;17.80;;;15.50;;
70049;SDS011;57391;51.306;22.680;2023-08-21T02:00:09;19.30;;;16.50;;
70049;SDS011;57391;51.306;22.680;2023-08-21T02:02:42;19.60;;;16.70;;
70049;SDS011;57391;51.306;22.680;2023-08-21T02:05:09;21.30;;;16.70;;
70049;SDS011;57391;51.306;22.680;2023-08-21T02:07:36;22.80;;;16.70;;
70049;SDS011;57391;51.306;22.680;2023-08-21T02:10:03;20.40;;;16.80;;
70049;SDS011;57391;51.306;22.680;2023-08-21T02:12:31;20.80;;;16.80;;
70049;SDS011;57391;51.306;22.680;2023-08-21T02:14:58;22.90;;;17.60;;
70049;SDS011;57391;51.306;22.680;2023-08-21T02:17:27;22.10;;;17.30;;
70049;SDS011;57391;51.306;22.680;2023-08-21T02:19:54;21.70;;;17.30;;
70049;SDS011;57391;51.306;22.680;2023-08-21T02:22:21;21.50;;;17.50;;
70049;SDS011;57391;51.306;22.680;2023-08-21T02:24:48;20.30;;;17.10;;
70049;SDS011;57391;51.306;22.680;2023-08-21T02:27:15;21.00;;;17.60;;
70049;SDS011;57391;51.306;22.680;2023-08-21T02:29:41;21.20;;;17.80;;
70049;SDS011;57391;51.306;22.680;2023-08-21T02:32:08;19.60;;;16.90;;
70049;SDS011;57391;51.306;22.680;2023-08-21T02:34:35;20.60;;;16.80;;
70049;SDS011;57391;51.306;22.680;2023-08-21T02:37:02;19.80;;;16.90;;
70049;SDS011;57391;51.306;22.680;2023-08-21T02:39:29;21.50;;;17.20;;
70049;SDS011;57391;51.306;22.680;2023-08-21T02:41:56;22.20;;;18.10;;
70049;SDS011;57391;51.306;22.680;2023-08-21T02:44:23;20.60;;;17.20;;
70049;SDS011;57391;51.306;22.680;2023-08-21T02:46:50;23.60;;;17.30;;
70049;SDS011;57391;51.306;22.680;2023-08-21T02:49:16;21.80;;;17.70;;
70049;SDS011;57391;51.306;22.680;2023-08-21T02:51:43;21.30;;;18.10;;
70049;SDS011;57391;51.306;22.680;2023-08-21T02:54:11;22.00;;;17.30;;
70049;SDS011;57391;51.306;22.680;2023-08-21T02:56:38;23.50;;;17.30;;
70049;SDS011;57391;51.306;22.680;2023-08-21T02:59:05;22.70;;;17.70;;
70049;SDS011;57391;51.306;22.680;2023-08-21T03:01:31;20.00;;;17.80;;
70049;SDS011;57391;51.306;22.680;2023-08-21T03:03:58;22.10;;;18.00;;
70049;SDS011;57391;51.306;22.680;2023-08-21T03:06:25;21.10;;;18.00;;
70049;SDS011;57391;51.306;22.680;2023-08-21T03:08:52;21.80;;;18.00;;
70049;SDS011;57391;51.306;22.680;2023-08-21T03:11:19;23.70;;;18.50;;
70049;SDS011;57391;51.306;22.680;2023-08-21T03:13:46;26.00;;;18.70;;
70049;SDS011;57391;51.306;22.680;2023-08-21T03:16:13;22.40;;;17.60;;
70049;SDS011;57391;51.306;22.680;2023-08-21T03:18:57;22.20;;;18.40;;
70049;SDS011;57391;51.306;22.680;2023-08-21T03:21:27;24.50;;;18.70;;
70049;SDS011;57391;51.306;22.680;2023-08-21T03:23:56;23.10;;;18.00;;
70049;SDS011;57391;51.306;22.680;2023-08-21T03:26:25;23.50;;;18.20;;
70049;SDS011;57391;51.306;22.680;2023-08-21T03:28:51;22.20;;;17.90;;
70049;SDS011;57391;51.306;22.680;2023-08-21T03:31:18;21.60;;;17.70;;
70049;SDS011;57391;51.306;22.680;2023-08-21T03:33:45;21.10;;;17.80;;
70049;SDS011;57391;51.306;22.680;2023-08-21T03:36:13;25.00;;;18.60;;
70049;SDS011;57391;51.306;22.680;2023-08-21T03:38:41;22.50;;;18.70;;
70049;SDS011;57391;51.306;22.680;2023-08-21T03:41:08;22.70;;;17.90;;
70049;SDS011;57391;51.306;22.680;2023-08-21T03:43:35;22.50;;;18.30;;
70049;SDS011;57391;51.306;22.680;2023-08-21T03:46:03;20.70;;;18.00;;
70049;SDS011;57391;51.306;22.680;2023-08-21T03:48:30;21.60;;;18.40;;
70049;SDS011;57391;51.306;22.680;2023-08-21T03:50:57;22.10;;;18.40;;
70049;SDS011;57391;51.306;22.680;2023-08-21T03:53:24;24.40;;;18.60;;
70049;SDS011;57391;51.306;22.680;2023-08-21T03:55:52;21.40;;;18.10;;
70049;SDS011;57391;51.306;22.680;2023-08-21T03:58:19;21.60;;;18.50;;
70049;SDS011;57391;51.306;22.680;2023-08-21T04:00:46;21.20;;;18.10;;
70049;SDS011;57391;51.306;22.680;2023-08-21T04:03:13;21.10;;;17.70;;
70049;SDS011;57391;51.306;22.680;2023-08-21T04:05:40;21.10;;;16.90;;
70049;SDS011;57391;51.306;22.680;2023-08-21T04:08:07;20.40;;;16.80;;
70049;SDS011;57391;51.306;22.680;2023-08-21T04:10:33;19.60;;;16.90;;
70049;SDS011;57391;51.306;22.680;2023-08-21T04:13:00;20.40;;;16.40;;
70049;SDS011;57391;51.306;22.680;2023-08-21T04:15:27;18.70;;;16.00;;
70049;SDS011;57391;51.306;22.680;2023-08-21T04:17:54;17.90;;;15.70;;
70049;SDS011;57391;51.306;22.680;2023-08-21T04:20:21;21.00;;;16.10;;
70049;SDS011;57391;51.306;22.680;2023-08-21T04:22:49;18.80;;;16.30;;
70049;SDS011;57391;51.306;22.680;2023-08-21T04:25:16;20.10;;;15.70;;
70049;SDS011;57391;51.306;22.680;2023-08-21T04:27:45;18.70;;;15.70;;
70049;SDS011;57391;51.306;22.680;2023-08-21T04:30:12;17.40;;;14.90;;
70049;SDS011;57391;51.306;22.680;2023-08-21T04:32:39;17.20;;;14.50;;
70049;SDS011;57391;51.306;22.680;2023-08-21T04:35:07;17.10;;;15.20;;
70049;SDS011;57391;51.306;22.680;2023-08-21T04:37:38;16.60;;;14.50;;
70049;SDS011;57391;51.306;22.680;2023-08-21T04:40:11;16.80;;;14.40;;
70049;SDS011;57391;51.306;22.680;2023-08-21T04:42:39;16.30;;;14.60;;
70049;SDS011;57391;51.306;22.680;2023-08-21T04:45:06;16.30;;;14.60;;
70049;SDS011;57391;51.306;22.680;2023-08-21T04:47:35;15.60;;;14.00;;
70049;SDS011;57391;51.306;22.680;2023-08-21T04:50:03;16.60;;;14.90;;
70049;SDS011;57391;51.306;22.680;2023-08-21T04:52:30;15.80;;;14.20;;
70049;SDS011;57391;51.306;22.680;2023-08-21T04:54:57;15.70;;;14.10;;
70049;SDS011;57391;51.306;22.680;2023-08-21T04:57:24;15.50;;;13.80;;
70049;SDS011;57391;51.306;22.680;2023-08-21T04:59:51;16.00;;;14.20;;
70049;SDS011;57391;51.306;22.680;2023-08-21T05:02:18;16.30;;;14.80;;
70049;SDS011;57391;51.306;22.680;2023-08-21T05:04:47;15.50;;;13.90;;
70049;SDS011;57391;51.306;22.680;2023-08-21T05:07:13;16.40;;;14.70;;
70049;SDS011;57391;51.306;22.680;2023-08-21T05:09:40;17.30;;;14.90;;
70049;SDS011;57391;51.306;22.680;2023-08-21T05:12:08;16.60;;;14.80;;
70049;SDS011;57391;51.306;22.680;2023-08-21T05:14:35;16.60;;;14.90;;
70049;SDS011;57391;51.306;22.680;2023-08-21T05:17:03;16.00;;;14.40;;
70049;SDS011;57391;51.306;22.680;2023-08-21T05:19:30;15.90;;;14.20;;
70049;SDS011;57391;51.306;22.680;2023-08-21T05:21:57;15.50;;;14.00;;
70049;SDS011;57391;51.306;22.680;2023-08-21T05:24:24;16.10;;;14.10;;
70049;SDS011;57391;51.306;22.680;2023-08-21T05:26:57;16.50;;;14.70;;
70049;SDS011;57391;51.306;22.680;2023-08-21T05:29:24;16.10;;;14.50;;
70049;SDS011;57391;51.306;22.680;2023-08-21T05:31:51;17.70;;;14.30;;
70049;SDS011;57391;51.306;22.680;2023-08-21T05:34:18;16.00;;;13.90;;
70049;SDS011;57391;51.306;22.680;2023-08-21T05:36:45;15.70;;;14.10;;
70049;SDS011;57391;51.306;22.680;2023-08-21T05:39:12;16.90;;;14.60;;
70049;SDS011;57391;51.306;22.680;2023-08-21T05:41:39;18.30;;;14.10;;
70049;SDS011;57391;51.306;22.680;2023-08-21T05:44:06;17.00;;;14.70;;
70049;SDS011;57391;51.306;22.680;2023-08-21T05:46:33;16.00;;;14.30;;
70049;SDS011;57391;51.306;22.680;2023-08-21T05:49:00;15.40;;;13.60;;
70049;SDS011;57391;51.306;22.680;2023-08-21T05:51:27;15.70;;;13.80;;
70049;SDS011;57391;51.306;22.680;2023-08-21T05:53:54;15.60;;;13.90;;
70049;SDS011;57391;51.306;22.680;2023-08-21T05:56:21;16.00;;;14.30;;
70049;SDS011;57391;51.306;22.680;2023-08-21T05:58:49;16.00;;;14.10;;
70049;SDS011;57391;51.306;22.680;2023-08-21T06:01:15;14.80;;;13.30;;
70049;SDS011;57391;51.306;22.680;2023-08-21T06:03:43;15.80;;;13.40;;
70049;SDS011;57391;51.306;22.680;2023-08-21T06:06:30;15.30;;;13.70;;
70049;SDS011;57391;51.306;22.680;2023-08-21T06:08:57;16.20;;;14.50;;
70049;SDS011;57391;51.306;22.680;2023-08-21T06:11:24;16.80;;;14.60;;
70049;SDS011;57391;51.306;22.680;2023-08-21T06:13:50;18.10;;;13.30;;
70049;SDS011;57391;51.306;22.680;2023-08-21T06:16:17;16.30;;;13.80;;
70049;SDS011;57391;51.306;22.680;2023-08-21T06:18:44;15.80;;;14.00;;
70049;SDS011;57391;51.306;22.680;2023-08-21T06:21:11;17.80;;;14.40;;
70049;SDS011;57391;51.306;22.680;2023-08-21T06:23:38;15.80;;;13.60;;
70049;SDS011;57391;51.306;22.680;2023-08-21T06:26:06;17.40;;;13.30;;
70049;SDS011;57391;51.306;22.680;2023-08-21T06:28:32;19.10;;;13.90;;
70049;SDS011;57391;51.306;22.680;2023-08-21T06:30:59;15.30;;;13.30;;
70049;SDS011;57391;51.306;22.680;2023-08-21T06:33:30;17.50;;;13.60;;
70049;SDS011;57391;51.306;22.680;2023-08-21T06:35:57;15.60;;;13.10;;
70049;SDS011;57391;51.306;22.680;2023-08-21T06:38:24;16.10;;;13.50;;
70049;SDS011;57391;51.306;22.680;2023-08-21T06:40:51;15.00;;;12.90;;
70049;SDS011;57391;51.306;22.680;2023-08-21T06:43:18;13.90;;;12.40;;
70049;SDS011;57391;51.306;22.680;2023-08-21T06:45:47;14.70;;;12.30;;
70049;SDS011;57391;51.306;22.680;2023-08-21T06:48:14;14.20;;;12.20;;
70049;SDS011;57391;51.306;22.680;2023-08-21T06:50:41;15.50;;;12.00;;
70049;SDS011;57391;51.306;22.680;2023-08-21T06:53:07;14.90;;;11.60;;
70049;SDS011;57391;51.306;22.680;2023-08-21T06:55:34;15.30;;;11.90;;
70049;SDS011;57391;51.306;22.680;2023-08-21T06:58:01;14.20;;;11.80;;
70049;SDS011;57391;51.306;22.680;2023-08-21T07:00:28;13.80;;;12.20;;
70049;SDS011;57391;51.306;22.680;2023-08-21T07:02:55;13.60;;;11.40;;
70049;SDS011;57391;51.306;22.680;2023-08-21T07:05:22;17.30;;;11.30;;
70049;SDS011;57391;51.306;22.680;2023-08-21T07:07:49;13.80;;;11.50;;
70049;SDS011;57391;51.306;22.680;2023-08-21T07:10:15;14.30;;;12.10;;
70049;SDS011;57391;51.306;22.680;2023-08-21T07:12:42;14.10;;;11.90;;
70049;SDS011;57391;51.306;22.680;2023-08-21T07:15:09;14.70;;;12.90;;
70049;SDS011;57391;51.306;22.680;2023-08-21T07:17:37;14.20;;;11.90;;
70049;SDS011;57391;51.306;22.680;2023-08-21T07:20:04;15.70;;;11.90;;
70049;SDS011;57391;51.306;22.680;2023-08-21T07:22:31;14.60;;;12.00;;
70049;SDS011;57391;51.306;22.680;2023-08-21T07:24:58;13.40;;;11.70;;
70049;SDS011;57391;51.306;22.680;2023-08-21T07:27:30;12.30;;;10.70;;
70049;SDS011;57391;51.306;22.680;2023-08-21T07:29:57;12.50;;;10.90;;
70049;SDS011;57391;51.306;22.680;2023-08-21T07:32:24;12.70;;;10.90;;
70049;SDS011;57391;51.306;22.680;2023-08-21T07:34:52;11.40;;;10.00;;
70049;SDS011;57391;51.306;22.680;2023-08-21T07:37:20;13.70;;;11.10;;
70049;SDS011;57391;51.306;22.680;2023-08-21T07:39:47;14.00;;;10.50;;
70049;SDS011;57391;51.306;22.680;2023-08-21T07:42:14;14.90;;;10.40;;
70049;SDS011;57391;51.306;22.680;2023-08-21T07:44:41;12.50;;;10.40;;
70049;SDS011;57391;51.306;22.680;2023-08-21T07:47:08;12.80;;;10.40;;
70049;SDS011;57391;51.306;22.680;2023-08-21T07:49:35;13.70;;;10.10;;
70049;SDS011;57391;51.306;22.680;2023-08-21T07:52:03;12.10;;;9.70;;
70049;SDS011;57391;51.306;22.680;2023-08-21T07:54:31;11.70;;;10.20;;
70049;SDS011;57391;51.306;22.680;2023-08-21T07:56:58;13.80;;;10.70;;
70049;SDS011;57391;51.306;22.680;2023-08-21T07:59:25;14.30;;;9.90;;
70049;SDS011;57391;51.306;22.680;2023-08-21T08:01:52;11.60;;;10.00;;
70049;SDS011;57391;51.306;22.680;2023-08-21T08:04:19;11.10;;;9.90;;
70049;SDS011;57391;51.306;22.680;2023-08-21T08:06:47;12.50;;;10.00;;
70049;SDS011;57391;51.306;22.680;2023-08-21T08:09:14;10.40;;;9.30;;
70049;SDS011;57391;51.306;22.680;2023-08-21T08:11:41;11.00;;;8.90;;
70049;SDS011;57391;51.306;22.680;2023-08-21T08:14:07;10.90;;;8.50;;
70049;SDS011;57391;51.306;22.680;2023-08-21T08:16:34;9.90;;;8.80;;
70049;SDS011;57391;51.306;22.680;2023-08-21T08:19:01;12.10;;;8.60;;
70049;SDS011;57391;51.306;22.680;2023-08-21T08:21:28;10.30;;;8.30;;
70049;SDS011;57391;51.306;22.680;2023-08-21T08:23:56;11.40;;;8.70;;
70049;SDS011;57391;51.306;22.680;2023-08-21T08:26:23;9.30;;;7.80;;
70049;SDS011;57391;51.306;22.680;2023-08-21T08:28:50;9.00;;;7.80;;
70049;SDS011;57391;51.306;22.680;2023-08-21T08:31:18;9.80;;;7.20;;
70049;SDS011;57391;51.306;22.680;2023-08-21T08:33:45;10.60;;;7.90;;
70049;SDS011;57391;51.306;22.680;2023-08-21T08:36:12;9.70;;;7.80;;
70049;SDS011;57391;51.306;22.680;2023-08-21T08:38:39;9.60;;;7.70;;
70049;SDS011;57391;51.306;22.680;2023-08-21T08:41:11;8.70;;;7.80;;
70049;SDS011;57391;51.306;22.680;2023-08-21T08:43:46;11.20;;;7.80;;
70049;SDS011;57391;51.306;22.680;2023-08-21T08:46:14;9.60;;;7.20;;
70049;SDS011;57391;51.306;22.680;2023-08-21T08:48:41;8.80;;;7.90;;
70049;SDS011;57391;51.306;22.680;2023-08-21T08:51:09;8.90;;;7.60;;
70049;SDS011;57391;51.306;22.680;2023-08-21T08:53:36;8.90;;;7.90;;
70049;SDS011;57391;51.306;22.680;2023-08-21T08:56:04;8.40;;;7.50;;
70049;SDS011;57391;51.306;22.680;2023-08-21T08:58:31;10.30;;;7.70;;
70049;SDS011;57391;51.306;22.680;2023-08-21T09:00:58;10.10;;;7.80;;
70049;SDS011;57391;51.306;22.680;2023-08-21T09:03:28;10.10;;;7.80;;
70049;SDS011;57391;51.306;22.680;2023-08-21T09:05:56;10.20;;;7.50;;
70049;SDS011;57391;51.306;22.680;2023-08-21T09:08:26;10.90;;;7.10;;
70049;SDS011;57391;51.306;22.680;2023-08-21T09:10:53;8.20;;;7.10;;
70049;SDS011;57391;51.306;22.680;2023-08-21T09:13:20;9.40;;;8.10;;
70049;SDS011;57391;51.306;22.680;2023-08-21T09:15:51;8.80;;;6.90;;
70049;SDS011;57391;51.306;22.680;2023-08-21T09:18:20;8.80;;;6.90;;
70049;SDS011;57391;51.306;22.680;2023-08-21T09:20:47;8.30;;;7.20;;
70049;SDS011;57391;51.306;22.680;2023-08-21T09:23:16;10.50;;;7.10;;
70049;SDS011;57391;51.306;22.680;2023-08-21T09:25:48;7.90;;;7.10;;
70049;SDS011;57391;51.306;22.680;2023-08-21T09:28:20;9.60;;;7.10;;
70049;SDS011;57391;51.306;22.680;2023-08-21T09:30:50;9.70;;;7.10;;
70049;SDS011;57391;51.306;22.680;2023-08-21T09:33:23;10.40;;;7.60;;
70049;SDS011;57391;51.306;22.680;2023-08-21T09:35:51;10.90;;;8.30;;
70049;SDS011;57391;51.306;22.680;2023-08-21T09:38:19;12.10;;;9.80;;
70049;SDS011;57391;51.306;22.680;2023-08-21T09:40:53;13.90;;;11.80;;
70049;SDS011;57391;51.306;22.680;2023-08-21T09:43:22;15.60;;;12.70;;
70049;SDS011;57391;51.306;22.680;2023-08-21T09:45:52;14.20;;;11.50;;
70049;SDS011;57391;51.306;22.680;2023-08-21T09:48:23;15.60;;;12.80;;
70049;SDS011;57391;51.306;22.680;2023-08-21T09:50:51;15.10;;;12.30;;
70049;SDS011;57391;51.306;22.680;2023-08-21T09:53:20;15.20;;;10.80;;
70049;SDS011;57391;51.306;22.680;2023-08-21T09:55:52;12.90;;;11.10;;
70049;SDS011;57391;51.306;22.680;2023-08-21T09:58:21;13.30;;;10.20;;
70049;SDS011;57391;51.306;22.680;2023-08-21T10:00:49;12.10;;;9.90;;
70049;SDS011;57391;51.306;22.680;2023-08-21T10:03:22;13.50;;;10.70;;
70049;SDS011;57391;51.306;22.680;2023-08-21T10:05:50;10.70;;;9.30;;
70049;SDS011;57391;51.306;22.680;2023-08-21T10:08:24;12.30;;;8.70;;
70049;SDS011;57391;51.306;22.680;2023-08-21T10:10:53;10.60;;;9.00;;
70049;SDS011;57391;51.306;22.680;2023-08-21T10:13:22;9.90;;;8.90;;
70049;SDS011;57391;51.306;22.680;2023-08-21T10:15:50;10.60;;;9.40;;
70049;SDS011;57391;51.306;22.680;2023-08-21T10:18:25;9.50;;;8.40;;
70049;SDS011;57391;51.306;22.680;2023-08-21T10:21:16;12.10;;;9.50;;
70049;SDS011;57391;51.306;22.680;2023-08-21T10:23:50;10.70;;;8.90;;
70049;SDS011;57391;51.306;22.680;2023-08-21T10:26:21;13.00;;;9.90;;
70049;SDS011;57391;51.306;22.680;2023-08-21T10:28:50;14.70;;;9.60;;
70049;SDS011;57391;51.306;22.680;2023-08-21T10:33:58;11.70;;;10.20;;
70049;SDS011;57391;51.306;22.680;2023-08-21T10:39:23;21.20;;;15.90;;
70049;SDS011;57391;51.306;22.680;2023-08-21T10:47:23;18.50;;;14.10;;
70049;SDS011;57391;51.306;22.680;2023-08-21T10:49:59;14.50;;;12.50;;
70049;SDS011;57391;51.306;22.680;2023-08-21T10:55:03;14.20;;;11.40;;
70049;SDS011;57391;51.306;22.680;2023-08-21T10:57:31;11.80;;;10.30;;
70049;SDS011;57391;51.306;22.680;2023-08-21T11:00:05;13.70;;;11.70;;
70049;SDS011;57391;51.306;22.680;2023-08-21T11:02:48;15.10;;;11.50;;
70049;SDS011;57391;51.306;22.680;2023-08-21T11:05:16;13.60;;;11.70;;
70049;SDS011;57391;51.306;22.680;2023-08-21T11:07:46;15.30;;;11.40;;
70049;SDS011;57391;51.306;22.680;2023-08-21T11:10:16;14.10;;;12.10;;
70049;SDS011;57391;51.306;22.680;2023-08-21T11:12:55;14.40;;;11.20;;
70049;SDS011;57391;51.306;22.680;2023-08-21T11:15:24;13.70;;;11.20;;
70049;SDS011;57391;51.306;22.680;2023-08-21T11:17:56;14.20;;;10.90;;
70049;SDS011;57391;51.306;22.680;2023-08-21T11:20:31;13.30;;;10.80;;
70049;SDS011;57391;51.306;22.680;2023-08-21T11:23:02;14.00;;;10.60;;
70049;SDS011;57391;51.306;22.680;2023-08-21T11:25:37;13.00;;;10.70;;
70049;SDS011;57391;51.306;22.680;2023-08-21T11:28:06;13.40;;;10.90;;
70049;SDS011;57391;51.306;22.680;2023-08-21T11:30:34;13.80;;;11.50;;
70049;SDS011;57391;51.306;22.680;2023-08-21T11:33:08;14.40;;;10.70;;
70049;SDS011;57391;51.306;22.680;2023-08-21T11:35:37;13.70;;;10.90;;
70049;SDS011;57391;51.306;22.680;2023-08-21T11:38:05;14.40;;;10.90;;
70049;SDS011;57391;51.306;22.680;2023-08-21T11:40:36;16.00;;;12.40;;
70049;SDS011;57391;51.306;22.680;2023-08-21T11:43:06;15.90;;;13.00;;
70049;SDS011;57391;51.306;22.680;2023-08-21T11:45:35;13.20;;;11.10;;
70049;SDS011;57391;51.306;22.680;2023-08-21T11:48:02;15.00;;;11.20;;
70049;SDS011;57391;51.306;22.680;2023-08-21T11:50:29;15.30;;;12.60;;
70049;SDS011;57391;51.306;22.680;2023-08-21T11:52:56;13.70;;;12.10;;
70049;SDS011;57391;51.306;22.680;2023-08-21T11:55:23;14.90;;;12.90;;
70049;SDS011;57391;51.306;22.680;2023-08-21T11:57:52;14.90;;;10.10;;
70049;SDS011;57391;51.306;22.680;2023-08-21T12:00:28;11.80;;;8.70;;
70049;SDS011;57391;51.306;22.680;2023-08-21T12:02:58;10.20;;;7.90;;
70049;SDS011;57391;51.306;22.680;2023-08-21T12:05:27;10.90;;;7.70;;
70049;SDS011;57391;51.306;22.680;2023-08-21T12:07:55;11.30;;;8.30;;
70049;SDS011;57391;51.306;22.680;2023-08-21T12:10:27;10.40;;;7.60;;
70049;SDS011;57391;51.306;22.680;2023-08-21T12:12:55;10.40;;;7.20;;
70049;SDS011;57391;51.306;22.680;2023-08-21T12:15:23;9.70;;;6.90;;
70049;SDS011;57391;51.306;22.680;2023-08-21T12:17:50;9.30;;;7.20;;
70049;SDS011;57391;51.306;22.680;2023-08-21T12:20:16;9.50;;;7.50;;
70049;SDS011;57391;51.306;22.680;2023-08-21T12:22:43;9.40;;;7.80;;
70049;SDS011;57391;51.306;22.680;2023-08-21T12:25:10;12.40;;;8.40;;
70049;SDS011;57391;51.306;22.680;2023-08-21T12:27:39;10.60;;;8.00;;
70049;SDS011;57391;51.306;22.680;2023-08-21T12:30:06;11.30;;;7.90;;
70049;SDS011;57391;51.306;22.680;2023-08-21T12:32:34;12.60;;;7.70;;
70049;SDS011;57391;51.306;22.680;2023-08-21T12:35:00;11.80;;;8.50;;
70049;SDS011;57391;51.306;22.680;2023-08-21T12:37:27;13.40;;;9.20;;
70049;SDS011;57391;51.306;22.680;2023-08-21T12:39:55;15.60;;;10.70;;
70049;SDS011;57391;51.306;22.680;2023-08-21T12:42:22;13.20;;;9.90;;
70049;SDS011;57391;51.306;22.680;2023-08-21T12:44:49;12.60;;;10.30;;
70049;SDS011;57391;51.306;22.680;2023-08-21T12:47:16;13.40;;;10.90;;
70049;SDS011;57391;51.306;22.680;2023-08-21T12:49:43;13.70;;;10.20;;
70049;SDS011;57391;51.306;22.680;2023-08-21T12:52:10;15.00;;;11.80;;
70049;SDS011;57391;51.306;22.680;2023-08-21T12:54:39;14.80;;;11.80;;
70049;SDS011;57391;51.306;22.680;2023-08-21T12:57:06;14.40;;;11.90;;
70049;SDS011;57391;51.306;22.680;2023-08-21T12:59:34;15.30;;;11.70;;
70049;SDS011;57391;51.306;22.680;2023-08-21T13:02:00;16.10;;;12.10;;
70049;SDS011;57391;51.306;22.680;2023-08-21T13:04:28;14.20;;;11.50;;
70049;SDS011;57391;51.306;22.680;2023-08-21T13:06:55;12.30;;;9.70;;
70049;SDS011;57391;51.306;22.680;2023-08-21T13:09:22;9.00;;;6.90;;
70049;SDS011;57391;51.306;22.680;2023-08-21T13:11:51;9.60;;;6.90;;
70049;SDS011;57391;51.306;22.680;2023-08-21T13:14:20;7.50;;;5.70;;
70049;SDS011;57391;51.306;22.680;2023-08-21T13:16:47;7.70;;;5.30;;
70049;SDS011;57391;51.306;22.680;2023-08-21T13:19:14;6.00;;;4.60;;
70049;SDS011;57391;51.306;22.680;2023-08-21T13:21:40;7.40;;;5.30;;
70049;SDS011;57391;51.306;22.680;2023-08-21T13:24:07;7.10;;;5.70;;
70049;SDS011;57391;51.306;22.680;2023-08-21T13:26:34;6.90;;;5.20;;
70049;SDS011;57391;51.306;22.680;2023-08-21T13:29:01;9.80;;;7.50;;
70049;SDS011;57391;51.306;22.680;2023-08-21T13:31:28;9.10;;;6.30;;
70049;SDS011;57391;51.306;22.680;2023-08-21T13:33:55;9.40;;;6.70;;
70049;SDS011;57391;51.306;22.680;2023-08-21T13:36:22;9.50;;;6.50;;
70049;SDS011;57391;51.306;22.680;2023-08-21T13:38:49;10.40;;;6.90;;
70049;SDS011;57391;51.306;22.680;2023-08-21T13:41:15;10.90;;;6.80;;
70049;SDS011;57391;51.306;22.680;2023-08-21T13:43:42;8.90;;;7.40;;
70049;SDS011;57391;51.306;22.680;2023-08-21T13:46:09;10.20;;;7.80;;
70049;SDS011;57391;51.306;22.680;2023-08-21T13:48:36;9.00;;;6.80;;
70049;SDS011;57391;51.306;22.680;2023-08-21T13:51:03;7.80;;;5.60;;
70049;SDS011;57391;51.306;22.680;2023-08-21T13:53:30;7.50;;;4.80;;
70049;SDS011;57391;51.306;22.680;2023-08-21T13:55:57;7.20;;;4.80;;
70049;SDS011;57391;51.306;22.680;2023-08-21T13:58:25;7.10;;;4.80;;
70049;SDS011;57391;51.306;22.680;2023-08-21T14:00:52;6.20;;;4.50;;
70049;SDS011;57391;51.306;22.680;2023-08-21T14:03:19;6.20;;;4.10;;
70049;SDS011;57391;51.306;22.680;2023-08-21T14:05:46;6.30;;;4.60;;
70049;SDS011;57391;51.306;22.680;2023-08-21T14:08:12;8.50;;;5.10;;
70049;SDS011;57391;51.306;22.680;2023-08-21T14:10:39;6.60;;;4.60;;
70049;SDS011;57391;51.306;22.680;2023-08-21T14:13:06;7.10;;;4.70;;
70049;SDS011;57391;51.306;22.680;2023-08-21T14:15:34;7.00;;;4.00;;
70049;SDS011;57391;51.306;22.680;2023-08-21T14:18:02;7.00;;;4.10;;
70049;SDS011;57391;51.306;22.680;2023-08-21T14:20:29;6.90;;;4.20;;
70049;SDS011;57391;51.306;22.680;2023-08-21T14:22:56;6.30;;;4.30;;
70049;SDS011;57391;51.306;22.680;2023-08-21T14:25:23;5.80;;;3.90;;
70049;SDS011;57391;51.306;22.680;2023-08-21T14:27:50;8.20;;;4.40;;
70049;SDS011;57391;51.306;22.680;2023-08-21T14:30:18;5.40;;;3.90;;
70049;SDS011;57391;51.306;22.680;2023-08-21T14:32:45;5.40;;;3.50;;
70049;SDS011;57391;51.306;22.680;2023-08-21T14:35:12;6.60;;;3.50;;